Time;durP1;ratioP1;P1;durP2;ratioP2;P2;SDS_P1;SDS_P2;PMS_P1;PMS_P2;Temp;Humidity;BMP_temperature;BMP_pressure;BME280_temperature;BME280_humidity;BME280_pressure;Samples;Min_cycle;Max_cycle;Signal;HPM_P1;HPM_P2
2021/12/08 00:00:50;;;;;;;3.72;2.35;;;9.10;99.90;;;;;;5076068;28;20027;-69
2021/12/08 00:03:19;;;;;;;5.72;2.58;;;9.00;99.90;;;;;;5075187;28;20055;-69
2021/12/08 00:05:47;;;;;;;3.25;2.30;;;9.00;99.90;;;;;;5074580;28;20413;-68
2021/12/08 00:08:18;;;;;;;5.22;2.22;;;8.90;99.90;;;;;;5078444;28;20426;-68
2021/12/08 00:13:32;;;;;;;5.00;2.00;;;9.00;99.90;;;;;;5090595;28;20060;-69
2021/12/08 00:16:07;;;;;;;5.88;2.28;;;8.90;99.90;;;;;;5074769;28;20046;-68
2021/12/08 00:18:36;;;;;;;4.38;2.78;;;8.70;99.90;;;;;;5076305;28;20038;-69
2021/12/08 00:21:07;;;;;;;6.93;2.58;;;8.70;99.90;;;;;;5032765;28;20044;-69
2021/12/08 00:23:35;;;;;;;7.63;2.88;;;8.70;99.90;;;;;;5092628;28;20036;-68
2021/12/08 00:26:04;;;;;;;4.50;2.50;;;8.70;99.90;;;;;;5102703;28;20481;-68
2021/12/08 00:28:33;;;;;;;24.67;2.28;;;8.70;99.90;;;;;;5073642;28;20031;-69
2021/12/08 00:31:03;;;;;;;4.47;1.80;;;8.70;99.90;;;;;;5067276;28;20044;-69
2021/12/08 00:33:33;;;;;;;8.00;2.47;;;8.70;99.90;;;;;;5062329;28;20044;-68
2021/12/08 00:36:02;;;;;;;5.38;2.28;;;8.70;99.90;;;;;;5092023;28;20063;-68
2021/12/08 00:38:30;;;;;;;4.03;2.25;;;8.80;99.90;;;;;;5050067;28;20502;-69
2021/12/08 00:40:58;;;;;;;5.88;3.05;;;8.70;99.90;;;;;;5071324;28;20465;-69
2021/12/08 00:43:26;;;;;;;4.80;2.67;;;8.70;99.90;;;;;;5056616;28;20394;-69
2021/12/08 00:45:56;;;;;;;4.32;2.35;;;8.70;99.90;;;;;;5067912;28;20485;-69
2021/12/08 00:48:24;;;;;;;4.05;2.72;;;8.70;99.90;;;;;;5076004;28;20058;-68
2021/12/08 00:50:54;;;;;;;7.45;2.97;;;8.70;99.90;;;;;;5083852;28;20047;-69
2021/12/08 00:53:22;;;;;;;5.53;2.53;;;8.70;99.90;;;;;;5069674;28;20445;-69
2021/12/08 00:55:49;;;;;;;4.30;2.72;;;8.60;99.90;;;;;;5094495;28;20048;-69
2021/12/08 00:58:17;;;;;;;4.82;2.00;;;8.60;99.90;;;;;;5077789;28;20088;-69
2021/12/08 01:00:49;;;;;;;3.35;1.73;;;8.60;99.90;;;;;;5078336;28;20508;-69
2021/12/08 01:03:17;;;;;;;4.18;2.00;;;8.70;99.90;;;;;;5113976;28;20067;-69
2021/12/08 01:05:50;;;;;;;10.13;2.70;;;8.70;99.90;;;;;;5112106;28;20031;-69
2021/12/08 01:08:21;;;;;;;7.53;1.83;;;8.70;99.90;;;;;;5077617;28;20069;-69
2021/12/08 01:10:50;;;;;;;5.32;2.45;;;8.70;99.90;;;;;;5093980;28;20067;-69
2021/12/08 01:13:18;;;;;;;5.00;2.20;;;8.70;99.90;;;;;;5093672;28;20538;-68
2021/12/08 01:15:50;;;;;;;3.78;1.73;;;8.70;99.90;;;;;;5094094;28;20044;-68
2021/12/08 01:18:19;;;;;;;6.22;2.38;;;8.70;99.90;;;;;;5094249;28;20039;-69
2021/12/08 01:20:49;;;;;;;4.82;2.08;;;8.70;99.90;;;;;;5114104;28;20550;-69
2021/12/08 01:23:17;;;;;;;4.70;2.15;;;8.70;99.90;;;;;;5114077;28;20144;-69
2021/12/08 01:25:45;;;;;;;4.90;1.80;;;8.70;99.90;;;;;;5114027;28;20477;-69
2021/12/08 01:28:13;;;;;;;2.78;1.73;;;8.80;99.90;;;;;;5096101;28;20043;-69
2021/12/08 01:30:40;;;;;;;2.47;1.55;;;8.70;99.90;;;;;;5114069;28;20059;-69
2021/12/08 01:33:08;;;;;;;3.95;2.08;;;8.70;99.90;;;;;;5095904;28;20036;-69
2021/12/08 01:35:35;;;;;;;6.13;2.40;;;8.60;99.90;;;;;;5078878;28;20046;-69
2021/12/08 01:38:05;;;;;;;3.20;1.90;;;8.70;99.90;;;;;;5095067;28;20044;-69
2021/12/08 01:40:32;;;;;;;4.03;1.92;;;8.60;99.90;;;;;;5079074;28;20130;-69
2021/12/08 01:43:02;;;;;;;5.32;2.65;;;8.50;99.90;;;;;;5095893;28;20542;-69
2021/12/08 01:48:19;;;;;;;4.97;2.05;;;8.60;99.90;;;;;;5114088;28;20039;-69
2021/12/08 01:50:51;;;;;;;2.42;1.88;;;8.60;99.90;;;;;;5113835;28;20047;-69
2021/12/08 01:53:19;;;;;;;5.38;2.05;;;8.60;99.90;;;;;;5114029;28;20032;-69
2021/12/08 01:55:54;;;;;;;8.02;2.38;;;8.60;99.90;;;;;;5095716;28;20035;-69
2021/12/08 01:58:31;;;;;;;2.90;1.98;;;8.60;99.90;;;;;;5095749;28;20554;-69
2021/12/08 02:01:03;;;;;;;4.22;1.90;;;8.70;99.90;;;;;;5113728;28;20051;-69
2021/12/08 02:03:34;;;;;;;6.07;3.03;;;8.70;99.90;;;;;;5078881;28;20036;-69
2021/12/08 02:06:06;;;;;;;6.13;2.58;;;8.70;99.90;;;;;;5095944;28;20040;-69
2021/12/08 02:08:38;;;;;;;6.60;2.75;;;8.70;99.90;;;;;;5095698;28;20092;-69
2021/12/08 02:11:06;;;;;;;2.60;1.75;;;8.70;99.90;;;;;;5078629;28;20142;-69
2021/12/08 02:13:41;;;;;;;3.92;2.90;;;8.80;99.90;;;;;;5113663;28;20039;-69
2021/12/08 02:16:16;;;;;;;3.05;1.83;;;8.70;99.90;;;;;;5113443;28;20042;-69
2021/12/08 02:18:47;;;;;;;3.33;2.20;;;8.70;99.90;;;;;;5096083;28;20065;-69
2021/12/08 02:21:27;;;;;;;4.65;2.67;;;8.70;99.90;;;;;;5062126;28;20047;-69
2021/12/08 02:23:57;;;;;;;3.28;1.83;;;8.70;99.90;;;;;;5078791;28;20043;-69
2021/12/08 02:26:27;;;;;;;2.60;2.05;;;8.70;99.90;;;;;;5098543;28;20534;-69
2021/12/08 02:28:55;;;;;;;3.22;2.00;;;8.70;99.90;;;;;;5117409;28;20434;-69
2021/12/08 02:31:50;;;;;;;4.03;2.17;;;8.60;99.90;;;;;;5099123;28;20046;-69
2021/12/08 02:48:06;;;;;;;8.50;1.85;;;8.50;99.90;;;;;;5068301;28;20047;-69
2021/12/08 02:50:40;;;;;;;3.88;1.63;;;8.50;99.90;;;;;;5082021;28;20035;-69
2021/12/08 02:53:10;;;;;;;4.15;1.80;;;8.50;99.90;;;;;;5098846;28;20051;-69
2021/12/08 02:55:39;;;;;;;3.40;1.50;;;8.40;99.90;;;;;;5081762;28;20408;-69
2021/12/08 02:58:08;;;;;;;2.90;1.67;;;8.40;99.90;;;;;;5116572;28;20032;-69
2021/12/08 03:00:43;;;;;;;4.40;1.73;;;8.40;99.90;;;;;;5116531;28;20107;-69
2021/12/08 03:03:11;;;;;;;2.22;1.38;;;8.30;99.90;;;;;;5117046;28;20036;-69
2021/12/08 03:05:41;;;;;;;4.40;1.50;;;8.30;99.90;;;;;;5098560;28;20096;-69
2021/12/08 03:08:09;;;;;;;4.63;2.50;;;8.30;99.90;;;;;;5098261;28;20035;-69
2021/12/08 03:10:42;;;;;;;4.35;1.67;;;8.30;99.90;;;;;;5098558;28;20529;-69
2021/12/08 03:13:13;;;;;;;2.88;1.67;;;8.30;99.90;;;;;;5098666;28;20036;-69
2021/12/08 03:15:46;;;;;;;3.42;2.13;;;8.20;99.90;;;;;;5098297;28;20047;-69
2021/12/08 03:18:13;;;;;;;2.83;1.50;;;8.20;99.90;;;;;;5116378;28;20054;-69
2021/12/08 03:20:45;;;;;;;5.07;2.00;;;8.20;99.90;;;;;;5081220;28;20043;-69
2021/12/08 03:23:20;;;;;;;5.22;2.40;;;8.20;99.90;;;;;;5098230;28;20043;-69
2021/12/08 03:25:55;;;;;;;4.65;1.88;;;8.20;99.90;;;;;;5098500;28;20424;-69
2021/12/08 03:28:28;;;;;;;3.58;1.73;;;8.10;99.90;;;;;;5097487;28;20071;-69
2021/12/08 03:33:24;;;;;;;2.67;1.45;;;8.10;99.90;;;;;;5097789;28;20063;-69
2021/12/08 03:35:51;;;;;;;3.55;1.98;;;8.10;99.90;;;;;;5097442;28;20484;-69
2021/12/08 03:38:21;;;;;;;3.08;1.80;;;8.00;99.90;;;;;;5115185;28;20047;-69
2021/12/08 03:40:51;;;;;;;3.55;1.80;;;8.00;99.90;;;;;;5097706;28;20043;-69
2021/12/08 03:43:20;;;;;;;7.85;2.67;;;8.00;99.90;;;;;;5097688;28;20485;-69
2021/12/08 03:45:50;;;;;;;3.90;2.25;;;8.00;99.90;;;;;;5115653;28;20557;-69
2021/12/08 03:48:28;;;;;;;3.50;1.60;;;7.90;99.90;;;;;;5080638;28;20039;-69
2021/12/08 03:50:57;;;;;;;4.03;2.33;;;7.90;99.90;;;;;;5097554;28;20119;-69
2021/12/08 03:53:24;;;;;;;3.30;1.77;;;7.90;99.90;;;;;;5115540;28;20035;-69
2021/12/08 03:55:54;;;;;;;3.55;1.83;;;7.90;99.90;;;;;;5097484;28;20031;-69
2021/12/08 03:58:23;;;;;;;3.92;2.10;;;7.80;99.90;;;;;;5097455;28;20032;-69
2021/12/08 04:00:52;;;;;;;4.82;2.55;;;7.70;99.90;;;;;;5097426;28;20456;-68
2021/12/08 04:03:20;;;;;;;4.03;2.05;;;7.70;99.90;;;;;;5097516;28;20036;-68
2021/12/08 04:08:29;;;;;;;7.13;2.22;;;7.70;99.90;;;;;;5115290;28;20066;-69
2021/12/08 04:11:00;;;;;;;4.30;2.17;;;7.60;99.90;;;;;;5115294;28;20448;-69
2021/12/08 04:13:49;;;;;;;3.63;2.28;;;7.60;99.90;;;;;;5097323;28;20071;-69
2021/12/08 04:16:22;;;;;;;3.97;1.55;;;7.50;99.90;;;;;;5080291;28;20049;-68
2021/12/08 04:18:50;;;;;;;3.75;1.65;;;7.50;99.90;;;;;;5097062;28;20059;-69
2021/12/08 04:21:20;;;;;;;3.22;2.10;;;7.40;99.90;;;;;;5080502;28;20048;-68
2021/12/08 04:23:48;;;;;;;3.80;2.10;;;7.40;99.90;;;;;;5097013;28;20086;-68
2021/12/08 04:26:27;;;;;;;3.10;1.95;;;7.30;99.90;;;;;;5079631;28;20046;-68
2021/12/08 04:28:55;;;;;;;3.42;2.05;;;7.30;99.90;;;;;;5115141;28;20123;-68
2021/12/08 04:31:27;;;;;;;6.68;3.30;;;7.30;99.90;;;;;;5115129;28;20040;-68
2021/12/08 04:34:00;;;;;;;5.72;2.05;;;7.30;99.90;;;;;;5080375;28;20117;-68
2021/12/08 04:36:41;;;;;;;5.63;2.17;;;7.20;99.90;;;;;;5114641;28;20042;-68
2021/12/08 04:39:30;;;;;;;5.90;1.90;;;7.20;99.90;;;;;;5096703;28;20028;-68
2021/12/08 04:42:05;;;;;;;3.67;2.15;;;7.30;99.90;;;;;;5096816;28;20078;-68
2021/12/08 04:44:44;;;;;;;5.32;2.80;;;7.20;99.90;;;;;;5096455;28;20023;-68
2021/12/08 04:52:23;;;;;;;3.17;1.85;;;7.20;99.90;;;;;;5114713;28;20380;-69
2021/12/08 05:03:42;;;;;;;2.53;1.33;;;7.20;99.90;;;;;;5096494;28;20047;-68
2021/12/08 05:08:49;;;;;;;3.50;2.00;;;7.30;99.90;;;;;;5096224;28;19920;-68
2021/12/08 05:11:22;;;;;;;3.60;1.67;;;7.30;99.90;;;;;;5114225;28;20028;-68
2021/12/08 05:13:54;;;;;;;3.33;2.20;;;7.30;99.90;;;;;;5114301;28;20118;-69
2021/12/08 05:16:24;;;;;;;3.10;1.95;;;7.20;99.90;;;;;;5096208;28;20031;-68
2021/12/08 05:18:53;;;;;;;6.78;1.48;;;7.20;99.90;;;;;;5079375;28;20419;-69
2021/12/08 05:21:29;;;;;;;3.45;1.83;;;7.30;99.90;;;;;;5096039;28;20382;-69
2021/12/08 05:24:05;;;;;;;4.95;2.20;;;7.30;99.90;;;;;;5095893;28;20075;-69
2021/12/08 05:26:51;;;;;;;2.70;1.60;;;7.30;99.90;;;;;;5114043;28;20073;-68
2021/12/08 05:29:36;;;;;;;4.68;1.90;;;7.30;99.90;;;;;;5096444;28;20152;-68
2021/12/08 05:32:05;;;;;;;4.50;2.85;;;7.40;99.90;;;;;;5079294;28;20081;-68
2021/12/08 05:34:36;;;;;;;4.85;2.05;;;7.30;99.90;;;;;;5079286;28;20054;-69
2021/12/08 05:37:06;;;;;;;4.63;2.00;;;7.40;99.90;;;;;;5113927;28;20130;-69
2021/12/08 05:39:34;;;;;;;5.53;2.03;;;7.30;99.90;;;;;;5113956;28;20122;-69
2021/12/08 05:42:08;;;;;;;6.55;2.28;;;7.30;99.90;;;;;;5113939;28;20059;-69
2021/12/08 05:44:36;;;;;;;4.15;2.17;;;7.40;99.90;;;;;;5096327;28;20063;-69
2021/12/08 05:47:08;;;;;;;2.67;1.77;;;7.40;99.90;;;;;;5113976;28;20107;-69
2021/12/08 05:49:36;;;;;;;4.05;1.77;;;7.40;99.90;;;;;;5095798;28;20418;-69
2021/12/08 05:52:06;;;;;;;10.35;2.70;;;7.30;99.90;;;;;;5113733;28;20039;-68
2021/12/08 05:54:37;;;;;;;4.70;1.70;;;7.40;99.90;;;;;;5113825;28;20070;-68
2021/12/08 05:57:19;;;;;;;18.77;4.72;;;7.50;99.90;;;;;;5113811;28;20067;-67
2021/12/08 05:59:49;;;;;;;3.92;1.73;;;7.50;99.90;;;;;;5096464;28;20040;-67
2021/12/08 06:02:21;;;;;;;4.22;2.17;;;7.60;99.90;;;;;;5117711;28;20477;-67
2021/12/08 06:04:49;;;;;;;5.00;2.65;;;7.60;99.90;;;;;;5099631;28;20106;-67
2021/12/08 06:07:22;;;;;;;4.03;1.90;;;7.60;99.90;;;;;;5099734;28;20047;-67
2021/12/08 06:09:52;;;;;;;4.60;1.83;;;7.60;99.90;;;;;;5099751;28;20552;-67
2021/12/08 06:12:20;;;;;;;3.70;2.25;;;7.50;99.90;;;;;;5099666;28;20047;-67
2021/12/08 06:14:54;;;;;;;4.18;1.90;;;7.50;99.90;;;;;;5117409;28;20043;-66
2021/12/08 06:17:27;;;;;;;5.25;2.38;;;7.60;99.90;;;;;;5099273;28;20193;-66
2021/12/08 06:19:56;;;;;;;3.15;2.20;;;7.90;99.90;;;;;;5099591;28;20059;-67
2021/12/08 06:22:25;;;;;;;2.95;2.13;;;8.20;99.90;;;;;;5099435;28;20046;-67
2021/12/08 06:24:53;;;;;;;4.07;2.40;;;8.70;99.90;;;;;;5090969;28;20354;-67
2021/12/08 06:27:23;;;;;;;3.78;1.83;;;9.30;99.90;;;;;;5082632;28;20043;-66
2021/12/08 06:29:51;;;;;;;3.50;1.90;;;9.80;99.70;;;;;;5117265;28;20036;-66
2021/12/08 06:32:19;;;;;;;4.22;1.70;;;10.20;99.00;;;;;;5098981;28;20430;-66
2021/12/08 06:34:52;;;;;;;4.90;1.90;;;10.50;98.90;;;;;;5098973;28;20044;-67
2021/12/08 06:37:28;;;;;;;3.53;1.48;;;10.70;98.10;;;;;;5117050;28;20042;-67
2021/12/08 06:40:01;;;;;;;3.15;2.00;;;11.30;98.00;;;;;;5117315;28;20047;-67
2021/12/08 06:42:32;;;;;;;6.20;2.13;;;11.50;97.10;;;;;;5082084;28;20420;-67
2021/12/08 06:45:00;;;;;;;2.42;1.98;;;11.30;97.10;;;;;;5081891;28;20372;-67
2021/12/08 06:47:31;;;;;;;4.07;2.25;;;11.10;97.40;;;;;;5116783;28;20112;-66
2021/12/08 06:50:24;;;;;;;7.10;3.53;;;11.70;97.60;;;;;;5117158;28;20070;-66
2021/12/08 06:52:55;;;;;;;6.45;3.42;;;12.80;96.30;;;;;;5098617;28;20046;-66
2021/12/08 06:55:28;;;;;;;7.72;3.03;;;13.80;94.60;;;;;;5116979;28;20040;-67
2021/12/08 06:58:02;;;;;;;3.60;2.50;;;14.40;93.70;;;;;;5116813;28;20047;-67
2021/12/08 07:01:11;;;;;;;5.63;3.50;;;14.80;93.00;;;;;;5116902;28;20071;-66
2021/12/08 07:03:45;;;;;;;5.55;2.42;;;15.30;92.30;;;;;;5115676;28;20044;-66
2021/12/08 07:09:06;;;;;;;9.02;2.60;;;17.10;90.20;;;;;;5098558;28;20546;-66
2021/12/08 07:11:34;;;;;;;5.35;2.28;;;18.00;88.10;;;;;;5081751;28;20051;-66
2021/12/08 07:14:02;;;;;;;5.90;2.92;;;18.20;86.40;;;;;;5116469;28;20040;-66
2021/12/08 07:16:34;;;;;;;4.00;2.15;;;17.40;86.00;;;;;;5098303;28;20036;-66
2021/12/08 07:19:23;;;;;;;3.78;2.20;;;16.90;88.10;;;;;;5116419;28;20419;-67
2021/12/08 07:21:52;;;;;;;6.82;3.45;;;17.10;87.80;;;;;;5116203;28;20035;-67
2021/12/08 07:24:33;;;;;;;5.80;2.55;;;16.40;88.90;;;;;;5116204;28;20040;-67
2021/12/08 07:27:16;;;;;;;4.38;2.80;;;16.30;90.20;;;;;;5116286;28;20074;-67
2021/12/08 07:29:45;;;;;;;2.78;1.67;;;16.00;89.60;;;;;;5116170;28;20031;-66
2021/12/08 07:32:19;;;;;;;2.78;1.92;;;15.20;90.40;;;;;;5115929;28;20036;-66
2021/12/08 07:34:51;;;;;;;3.10;1.70;;;14.20;91.40;;;;;;5097892;28;20108;-66
2021/12/08 07:37:26;;;;;;;6.20;2.03;;;13.20;92.50;;;;;;5097764;28;20469;-66
2021/12/08 07:40:16;;;;;;;4.15;2.17;;;12.30;93.60;;;;;;5097897;28;20059;-66
2021/12/08 07:43:00;;;;;;;5.40;2.53;;;11.80;94.60;;;;;;5115787;28;20035;-64
2021/12/08 07:45:36;;;;;;;5.20;3.22;;;11.50;95.30;;;;;;5114866;28;20101;-64
2021/12/08 07:48:08;;;;;;;6.32;3.63;;;11.40;96.00;;;;;;5115715;28;20044;-65
2021/12/08 07:51:01;;;;;;;4.80;4.03;;;11.40;95.90;;;;;;5115814;28;20035;-66
2021/12/08 07:53:31;;;;;;;8.10;4.10;;;11.40;95.80;;;;;;5097184;28;20027;-65
2021/12/08 07:56:04;;;;;;;12.57;4.80;;;11.30;95.90;;;;;;5097458;28;20058;-66
2021/12/08 07:58:36;;;;;;;6.45;4.30;;;11.40;96.20;;;;;;5096494;28;20358;-66
2021/12/08 08:01:17;;;;;;;6.28;3.70;;;11.80;95.90;;;;;;5097511;28;20142;-66
2021/12/08 08:03:46;;;;;;;6.65;4.43;;;12.70;95.10;;;;;;5097367;28;20046;-66
2021/12/08 08:06:26;;;;;;;8.27;3.95;;;13.50;93.90;;;;;;5097008;28;20032;-66
2021/12/08 08:08:54;;;;;;;9.00;4.00;;;14.40;93.10;;;;;;5115619;28;20119;-66
2021/12/08 08:11:33;;;;;;;19.67;4.97;;;15.20;92.20;;;;;;5115300;28;20382;-66
2021/12/08 08:14:12;;;;;;;6.05;3.70;;;15.60;91.50;;;;;;5115314;28;20047;-66
2021/12/08 08:16:55;;;;;;;8.25;4.20;;;16.00;91.10;;;;;;5115101;28;20036;-66
2021/12/08 08:19:28;;;;;;;24.90;11.35;;;16.20;90.60;;;;;;5115437;28;20462;-66
2021/12/08 08:22:08;;;;;;;20.58;11.18;;;16.30;90.50;;;;;;5107346;28;20047;-66
2021/12/08 08:24:37;;;;;;;8.38;5.68;;;16.30;90.40;;;;;;5114742;28;20114;-66
2021/12/08 08:27:15;;;;;;;5.63;3.58;;;16.20;90.60;;;;;;5114997;28;20043;-66
2021/12/08 08:29:43;;;;;;;5.28;3.45;;;16.00;90.60;;;;;;5080530;28;20439;-66
2021/12/08 08:32:24;;;;;;;3.92;2.88;;;15.70;90.90;;;;;;5113922;28;20100;-65
2021/12/08 08:34:55;;;;;;;4.72;3.33;;;15.50;91.10;;;;;;5112756;28;20035;-65
2021/12/08 08:37:23;;;;;;;9.00;3.60;;;15.30;91.30;;;;;;5079123;28;20051;-66
2021/12/08 08:39:55;;;;;;;7.63;3.45;;;15.00;91.70;;;;;;5096497;28;20035;-65
2021/12/08 08:42:27;;;;;;;5.93;3.50;;;14.90;91.80;;;;;;5097028;28;20043;-65
2021/12/08 08:44:58;;;;;;;8.13;2.90;;;14.80;92.20;;;;;;5115047;28;20366;-66
2021/12/08 08:47:31;;;;;;;5.13;2.47;;;14.80;92.50;;;;;;5114494;28;20096;-65
2021/12/08 08:49:59;;;;;;;4.07;2.65;;;14.80;92.50;;;;;;5114509;28;20062;-65
2021/12/08 08:52:33;;;;;;;5.15;2.35;;;14.70;92.70;;;;;;5114732;28;20046;-65
2021/12/08 08:55:10;;;;;;;3.40;2.30;;;14.70;92.80;;;;;;5114683;28;20031;-66
2021/12/08 08:57:39;;;;;;;3.72;1.70;;;14.60;92.60;;;;;;5114519;28;20036;-65
2021/12/08 09:00:25;;;;;;;3.72;1.77;;;14.70;92.60;;;;;;5095628;28;20378;-65
2021/12/08 09:02:54;;;;;;;3.80;2.40;;;14.70;92.70;;;;;;5114344;28;20032;-65
2021/12/08 09:05:28;;;;;;;4.10;2.53;;;14.80;92.80;;;;;;5114497;28;20362;-66
2021/12/08 09:08:13;;;;;;;4.32;1.85;;;14.90;92.90;;;;;;5098384;28;20497;-66
2021/12/08 09:10:51;;;;;;;3.63;2.10;;;15.00;92.90;;;;;;5114375;28;20062;-66
2021/12/08 09:13:23;;;;;;;3.88;2.10;;;15.00;92.60;;;;;;5114337;28;20084;-66
2021/12/08 09:15:59;;;;;;;7.22;2.13;;;15.00;92.70;;;;;;5079185;28;20050;-66
2021/12/08 09:18:46;;;;;;;4.28;3.13;;;14.90;92.30;;;;;;5114222;28;20067;-66
2021/12/08 09:21:41;;;;;;;5.28;2.97;;;14.90;92.60;;;;;;5114044;28;20118;-66
2021/12/08 09:24:34;;;;;;;5.93;2.28;;;14.70;92.50;;;;;;5114167;28;20031;-66
2021/12/08 09:27:05;;;;;;;5.50;2.42;;;14.70;93.00;;;;;;5096149;28;20432;-66
2021/12/08 09:29:46;;;;;;;4.20;2.35;;;14.80;93.00;;;;;;5114031;28;20088;-68
2021/12/08 09:32:22;;;;;;;3.58;2.08;;;14.90;93.10;;;;;;5096351;28;20047;-67
2021/12/08 09:34:57;;;;;;;4.13;2.35;;;15.00;93.00;;;;;;5080075;28;20075;-66
2021/12/08 09:37:33;;;;;;;5.20;2.22;;;15.00;92.80;;;;;;5118279;28;20071;-66
2021/12/08 09:40:28;;;;;;;8.57;2.45;;;15.00;92.60;;;;;;5118319;28;20113;-66
2021/12/08 09:43:03;;;;;;;4.15;2.60;;;15.00;92.50;;;;;;5089469;28;20496;-67
2021/12/08 09:45:55;;;;;;;4.93;2.17;;;15.10;92.60;;;;;;5115999;28;20031;-66
2021/12/08 09:48:27;;;;;;;7.28;1.90;;;15.20;92.40;;;;;;5115649;28;20387;-65
2021/12/08 09:50:57;;;;;;;2.45;1.70;;;15.30;92.20;;;;;;5099890;28;20043;-66
2021/12/08 09:53:26;;;;;;;3.15;1.80;;;15.40;92.20;;;;;;5117961;28;20043;-66
2021/12/08 09:55:55;;;;;;;3.92;1.90;;;15.50;92.30;;;;;;5100549;28;20031;-65
2021/12/08 09:58:24;;;;;;;4.75;2.42;;;15.40;92.50;;;;;;5117859;28;20530;-66
2021/12/08 10:00:55;;;;;;;3.95;2.15;;;15.40;92.50;;;;;;5099736;28;20039;-65
2021/12/08 10:03:24;;;;;;;8.45;1.70;;;15.30;92.40;;;;;;5117806;28;20369;-66
2021/12/08 10:05:52;;;;;;;4.60;2.10;;;15.10;92.60;;;;;;5117698;28;20035;-66
2021/12/08 10:08:20;;;;;;;3.90;1.85;;;15.00;92.70;;;;;;5099746;28;20042;-67
2021/12/08 10:10:48;;;;;;;5.15;2.35;;;14.80;93.00;;;;;;5117623;28;20043;-66
2021/12/08 10:13:16;;;;;;;6.35;3.13;;;14.70;93.10;;;;;;5117628;28;20136;-67
2021/12/08 10:15:44;;;;;;;3.72;1.92;;;14.60;93.20;;;;;;5117495;28;20089;-67
2021/12/08 10:18:12;;;;;;;4.43;2.22;;;14.50;93.40;;;;;;5099422;28;20118;-66
2021/12/08 10:20:47;;;;;;;5.47;2.65;;;14.40;93.60;;;;;;5099483;28;20034;-66
2021/12/08 10:23:28;;;;;;;4.97;2.88;;;14.30;93.70;;;;;;5082616;28;20505;-67
2021/12/08 10:26:07;;;;;;;6.72;3.15;;;14.30;93.80;;;;;;5117522;28;20044;-65
2021/12/08 10:28:40;;;;;;;6.40;2.75;;;14.30;94.00;;;;;;5099101;28;20112;-65
2021/12/08 10:31:25;;;;;;;7.78;2.65;;;14.30;93.80;;;;;;5099432;28;20035;-64
2021/12/08 10:34:20;;;;;;;4.18;2.15;;;14.20;93.80;;;;;;5117039;28;20036;-65
2021/12/08 10:37:00;;;;;;;4.22;1.90;;;14.30;94.10;;;;;;5117162;28;20059;-66
2021/12/08 10:39:37;;;;;;;4.75;2.28;;;14.50;94.00;;;;;;5117165;28;20063;-65
2021/12/08 10:42:23;;;;;;;;;;;14.70;94.00;;;;;;5099414;28;20043;-66
2021/12/08 10:45:08;;;;;;;4.80;2.90;;;14.80;93.50;;;;;;5117014;28;19915;-67
2021/12/08 10:47:55;;;;;;;5.90;3.38;;;14.90;93.30;;;;;;5116409;28;20043;-67
2021/12/08 10:56:06;;;;;;;4.70;2.72;;;15.00;93.00;;;;;;5116968;28;20040;-66
2021/12/08 10:58:39;;;;;;;3.60;2.38;;;15.00;92.90;;;;;;5116837;28;20040;-66
2021/12/08 11:01:22;;;;;;;4.78;1.88;;;14.90;92.80;;;;;;5098071;28;20043;-66
2021/12/08 11:03:58;;;;;;;3.67;2.20;;;14.80;93.00;;;;;;5116672;28;20040;-65
2021/12/08 11:06:31;;;;;;;4.78;1.85;;;14.60;92.80;;;;;;5116791;28;20047;-66
2021/12/08 11:08:58;;;;;;;5.18;2.47;;;14.60;92.70;;;;;;5098520;28;20482;-66
2021/12/08 11:11:32;;;;;;;4.68;2.88;;;14.50;92.80;;;;;;5098491;28;20043;-66
2021/12/08 11:14:04;;;;;;;5.40;2.88;;;14.30;93.20;;;;;;5098511;28;20078;-66
2021/12/08 11:16:33;;;;;;;9.77;4.25;;;14.30;93.20;;;;;;5116292;28;20369;-66
2021/12/08 11:19:08;;;;;;;6.13;3.47;;;14.20;93.50;;;;;;5116327;28;20031;-65
2021/12/08 11:21:40;;;;;;;6.40;4.00;;;14.10;93.50;;;;;;5116411;28;20122;-65
2021/12/08 11:24:33;;;;;;;7.15;4.90;;;14.00;93.40;;;;;;5098159;28;20346;-66
2021/12/08 11:27:05;;;;;;;8.00;5.43;;;13.90;92.90;;;;;;5116399;28;20046;-65
2021/12/08 11:29:39;;;;;;;10.80;4.55;;;13.90;93.50;;;;;;5116206;28;20081;-65
2021/12/08 11:32:09;;;;;;;9.70;3.65;;;13.90;94.00;;;;;;5116039;28;20492;-65
2021/12/08 11:34:46;;;;;;;7.88;3.63;;;13.90;93.30;;;;;;5116015;28;20055;-65
2021/12/08 11:37:21;;;;;;;4.88;2.88;;;13.80;93.10;;;;;;5097665;28;20044;-65
2021/12/08 11:39:52;;;;;;;8.32;3.47;;;13.80;93.10;;;;;;5098099;28;20114;-66
2021/12/08 11:42:23;;;;;;;5.18;2.47;;;13.80;93.10;;;;;;5115739;28;20042;-65
2021/12/08 11:44:53;;;;;;;3.10;1.88;;;13.80;93.30;;;;;;5097872;28;20040;-65
2021/12/08 11:47:26;;;;;;;3.28;2.20;;;13.70;93.40;;;;;;5097700;28;20050;-65
2021/12/08 11:50:00;;;;;;;5.38;2.95;;;13.70;93.50;;;;;;5097506;28;20113;-66
2021/12/08 11:52:30;;;;;;;7.13;3.97;;;13.80;93.60;;;;;;5097809;28;20401;-65
2021/12/08 11:55:00;;;;;;;5.30;2.65;;;13.80;93.70;;;;;;5114734;28;20431;-65
2021/12/08 11:57:40;;;;;;;3.92;2.33;;;13.80;93.60;;;;;;5114438;28;20048;-65
2021/12/08 12:00:23;;;;;;;3.45;2.15;;;13.80;93.60;;;;;;5097597;28;20036;-65
2021/12/08 12:03:08;;;;;;;3.30;2.00;;;13.70;93.00;;;;;;5115324;28;20122;-65
2021/12/08 12:05:43;;;;;;;5.07;2.65;;;13.70;92.70;;;;;;5115530;28;20036;-65
2021/12/08 12:08:14;;;;;;;5.07;2.90;;;13.70;92.90;;;;;;5097477;28;20481;-65
2021/12/08 12:10:46;;;;;;;6.57;3.28;;;13.60;93.00;;;;;;5115436;28;20043;-65
2021/12/08 12:13:13;;;;;;;4.80;3.20;;;13.60;93.40;;;;;;5115289;28;20097;-65
2021/12/08 12:15:53;;;;;;;4.65;2.80;;;13.40;92.70;;;;;;5115229;28;20067;-65
2021/12/08 12:18:23;;;;;;;4.60;2.28;;;13.30;92.90;;;;;;5115128;28;20057;-65
2021/12/08 12:21:12;;;;;;;4.55;3.03;;;13.30;93.30;;;;;;5097103;28;20090;-65
2021/12/08 12:24:04;;;;;;;5.07;3.13;;;13.10;93.00;;;;;;5115145;28;20081;-65
2021/12/08 12:27:03;;;;;;;5.80;3.08;;;12.80;93.10;;;;;;5115233;28;20346;-65
2021/12/08 12:29:36;;;;;;;8.02;4.72;;;12.70;93.40;;;;;;5114959;28;20067;-65
2021/12/08 12:32:31;;;;;;;6.05;3.70;;;12.80;93.70;;;;;;5114871;28;20081;-65
2021/12/08 12:35:09;;;;;;;6.18;3.20;;;12.70;93.80;;;;;;5096881;28;20040;-65
2021/12/08 12:37:38;;;;;;;5.55;4.35;;;12.80;93.60;;;;;;5096724;28;20040;-65
2021/12/08 12:40:10;;;;;;;5.10;3.78;;;12.80;93.60;;;;;;5114733;28;20046;-66
2021/12/08 12:42:53;;;;;;;5.80;3.50;;;12.80;93.70;;;;;;5114476;28;20031;-65
2021/12/08 12:45:24;;;;;;;7.38;4.07;;;12.80;93.60;;;;;;5079513;28;20039;-65
2021/12/08 12:48:10;;;;;;;9.02;4.45;;;12.70;93.40;;;;;;5114485;28;20039;-65
2021/12/08 12:51:16;;;;;;;3.90;2.53;;;12.90;92.80;;;;;;5096500;28;20040;-66
2021/12/08 12:53:59;;;;;;;3.67;2.28;;;12.80;92.70;;;;;;4995588;28;20113;-66
2021/12/08 12:56:30;;;;;;;5.85;4.50;;;12.90;92.50;;;;;;5011781;28;20060;-64
2021/12/08 12:59:10;;;;;;;4.32;2.95;;;12.90;92.40;;;;;;5075748;28;20036;-63
2021/12/08 13:01:44;;;;;;;3.80;1.90;;;12.90;92.70;;;;;;5114122;28;20056;-63
2021/12/08 13:04:22;;;;;;;7.07;2.42;;;12.90;92.70;;;;;;5095122;28;20044;-64
2021/12/08 13:07:03;;;;;;;12.05;4.53;;;12.90;92.70;;;;;;5096230;28;20040;-63
2021/12/08 13:09:37;;;;;;;5.15;2.53;;;12.70;93.10;;;;;;5079136;28;20082;-64
2021/12/08 13:12:16;;;;;;;6.15;2.50;;;12.70;93.40;;;;;;5114348;28;20074;-65
2021/12/08 13:14:45;;;;;;;3.83;2.00;;;12.70;93.30;;;;;;5114029;28;20118;-65
2021/12/08 13:17:25;;;;;;;7.53;2.22;;;12.60;92.90;;;;;;5114242;28;20403;-65
2021/12/08 13:19:56;;;;;;;4.15;2.78;;;12.60;93.20;;;;;;5096092;28;20031;-65
2021/12/08 13:22:49;;;;;;;3.58;2.25;;;12.50;93.40;;;;;;5113749;28;20064;-65
2021/12/08 13:25:32;;;;;;;2.80;1.75;;;12.50;93.10;;;;;;5079115;28;20044;-65
2021/12/08 13:34:10;;;;;;;10.05;6.70;;;12.50;94.20;;;;;;5095773;28;20040;-65
2021/12/08 13:36:44;;;;;;;6.32;4.20;;;12.50;94.40;;;;;;5078878;28;20075;-65
2021/12/08 13:39:19;;;;;;;9.30;5.50;;;12.50;94.40;;;;;;5113609;28;20035;-65
2021/12/08 13:42:09;;;;;;;13.05;6.53;;;12.50;94.70;;;;;;5113595;28;20101;-66
2021/12/08 13:44:40;;;;;;;13.73;7.85;;;12.40;94.60;;;;;;5113608;28;20032;-66
2021/12/08 13:47:48;;;;;;;16.25;9.75;;;12.40;94.90;;;;;;5094776;28;20104;-65
2021/12/08 13:50:24;;;;;;;8.00;4.88;;;12.30;94.70;;;;;;5010695;28;20041;-66
2021/12/08 13:53:06;;;;;;;5.93;3.35;;;12.30;95.00;;;;;;5010574;28;20042;-65
2021/12/08 13:55:38;;;;;;;7.63;4.88;;;12.30;95.10;;;;;;5077301;28;20528;-65
2021/12/08 13:58:14;;;;;;;12.88;8.00;;;12.20;95.00;;;;;;5112921;28;20134;-65
2021/12/08 14:00:52;;;;;;;14.45;8.10;;;12.20;95.30;;;;;;5112989;28;20049;-65
2021/12/08 14:03:23;;;;;;;10.48;6.03;;;12.10;95.60;;;;;;5094696;28;20487;-65
2021/12/08 14:05:57;;;;;;;14.48;9.10;;;12.10;95.70;;;;;;5094899;28;20043;-65
2021/12/08 14:08:34;;;;;;;10.73;5.70;;;12.00;96.10;;;;;;5112515;28;20523;-64
2021/12/08 14:11:34;;;;;;;6.47;3.92;;;12.00;96.40;;;;;;5094686;28;20118;-65
2021/12/08 14:14:07;;;;;;;3.60;2.53;;;12.00;96.50;;;;;;5091173;28;20036;-65
2021/12/08 14:16:35;;;;;;;5.40;3.08;;;12.10;96.60;;;;;;5094622;28;20067;-64
2021/12/08 14:19:07;;;;;;;4.90;3.00;;;12.00;96.50;;;;;;5112341;28;20048;-65
2021/12/08 14:21:36;;;;;;;5.95;4.30;;;12.00;96.80;;;;;;5096353;28;20044;-64